createdAt,value
2022-12-14T00:00:25.484Z,15.27
2022-12-14T00:03:31.507Z,16.25
2022-12-14T00:06:34.524Z,15.35
2022-12-14T00:09:38.039Z,16.17
2022-12-14T00:12:40.687Z,16.50
2022-12-14T00:15:43.239Z,16.85
2022-12-14T00:18:54.550Z,15.00
2022-12-14T00:21:57.116Z,13.45
2022-12-14T00:24:59.682Z,16.60
2022-12-14T00:28:02.208Z,14.38
2022-12-14T00:31:05.539Z,16.63
2022-12-14T00:34:08.149Z,15.38
2022-12-14T00:37:11.158Z,16.10
2022-12-14T00:40:13.858Z,15.43
2022-12-14T00:43:16.485Z,15.50
2022-12-14T00:46:19.092Z,15.07
2022-12-14T00:49:21.847Z,15.50
2022-12-14T00:52:24.393Z,16.65
2022-12-14T00:55:26.896Z,17.53
2022-12-14T00:58:30.595Z,17.20
2022-12-14T01:01:34.034Z,16.83
2022-12-14T01:04:36.914Z,15.73
2022-12-14T01:07:39.504Z,17.13
2022-12-14T01:10:42.726Z,15.23
2022-12-14T01:13:49.397Z,15.02
2022-12-14T01:16:57.048Z,14.93
2022-12-14T01:19:59.884Z,15.88
2022-12-14T01:23:02.451Z,15.50
2022-12-14T01:26:05.142Z,14.20
2022-12-14T01:29:08.456Z,14.80
2022-12-14T01:32:11.490Z,15.80
2022-12-14T01:35:14.404Z,14.52
2022-12-14T01:38:17.410Z,17.17
2022-12-14T01:41:38.048Z,14.57
2022-12-14T01:44:40.582Z,14.65
2022-12-14T01:47:46.611Z,13.98
2022-12-14T01:50:49.241Z,15.32
2022-12-14T01:53:53.298Z,13.90
2022-12-14T01:56:57.408Z,14.43
2022-12-14T02:00:06.712Z,13.95
2022-12-14T02:03:18.047Z,15.45
2022-12-14T02:06:28.843Z,14.15
2022-12-14T02:09:37.193Z,12.68
2022-12-14T02:12:51.158Z,13.80
2022-12-14T02:15:53.760Z,15.05
2022-12-14T02:18:56.567Z,13.88
2022-12-14T02:22:33.424Z,14.60
2022-12-14T02:26:03.845Z,14.13
2022-12-14T02:29:28.002Z,15.03
2022-12-14T02:33:02.704Z,12.45
2022-12-14T02:36:21.050Z,12.50
2022-12-14T02:40:04.388Z,13.38
2022-12-14T02:43:31.225Z,14.35
2022-12-14T02:46:50.388Z,13.23
2022-12-14T02:50:20.568Z,14.55
2022-12-14T02:53:54.972Z,14.70
2022-12-14T02:57:09.427Z,13.80
2022-12-14T03:00:13.328Z,13.35
2022-12-14T03:03:16.070Z,14.20
2022-12-14T03:06:26.348Z,14.27
2022-12-14T03:09:31.204Z,14.32
2022-12-14T03:12:37.092Z,13.32
2022-12-14T03:15:42.632Z,14.00
2022-12-14T03:18:51.407Z,14.03
2022-12-14T03:21:58.987Z,15.20
2022-12-14T03:25:08.974Z,15.82
2022-12-14T03:28:21.018Z,16.27
2022-12-14T03:31:49.085Z,13.60
2022-12-14T03:34:59.865Z,13.87
2022-12-14T03:38:42.595Z,13.85
2022-12-14T03:42:12.008Z,15.05
2022-12-14T03:45:20.266Z,15.73
2022-12-14T03:48:39.326Z,14.52
2022-12-14T03:52:05.708Z,15.30
2022-12-14T03:55:26.678Z,13.02
2022-12-14T03:58:57.025Z,14.52
2022-12-14T04:02:10.558Z,14.52
2022-12-14T04:05:23.799Z,16.63
2022-12-14T04:08:45.431Z,16.30
2022-12-14T04:12:22.972Z,16.33
2022-12-14T04:15:49.001Z,16.55
2022-12-14T04:19:00.642Z,15.82
2022-12-14T04:22:09.069Z,17.02
2022-12-14T04:25:41.803Z,15.33
2022-12-14T04:29:19.995Z,17.38
2022-12-14T04:32:28.622Z,17.92
2022-12-14T04:35:40.895Z,16.17
2022-12-14T04:38:45.825Z,17.77
2022-12-14T04:41:51.749Z,16.50
2022-12-14T04:45:03.742Z,19.23
2022-12-14T04:48:27.777Z,17.38
2022-12-14T04:51:35.986Z,18.17
2022-12-14T04:54:58.196Z,18.52
2022-12-14T04:58:12.100Z,17.20
2022-12-14T05:01:20.734Z,20.40
2022-12-14T05:04:55.036Z,17.70
2022-12-14T05:08:05.837Z,16.25
2022-12-14T05:11:53.207Z,19.15
2022-12-14T05:15:06.657Z,19.63
2022-12-14T05:18:10.270Z,17.63
2022-12-14T05:21:32.291Z,18.35
2022-12-14T05:24:36.402Z,17.27
2022-12-14T05:27:39.041Z,17.05
2022-12-14T05:30:41.617Z,16.63
2022-12-14T05:33:44.178Z,17.00
2022-12-14T05:36:46.992Z,17.35
2022-12-14T05:39:49.882Z,17.02
2022-12-14T05:42:55.863Z,16.50
2022-12-14T05:46:00.028Z,16.33
2022-12-14T05:49:03.061Z,15.70
2022-12-14T05:52:05.783Z,15.00
2022-12-14T05:55:08.913Z,15.75
2022-12-14T05:58:11.505Z,15.40
2022-12-14T06:01:18.750Z,15.00
2022-12-14T06:04:22.096Z,15.70
2022-12-14T06:07:27.992Z,14.90
2022-12-14T06:10:30.937Z,15.43
2022-12-14T06:13:33.635Z,15.50
2022-12-14T06:16:37.134Z,14.83
2022-12-14T06:19:39.906Z,14.18
2022-12-14T06:22:47.433Z,14.40
2022-12-14T06:25:57.678Z,14.70
2022-12-14T06:29:00.416Z,14.57
2022-12-14T06:32:03.237Z,14.57
2022-12-14T06:35:06.430Z,14.00
2022-12-14T06:38:09.017Z,13.57
2022-12-14T06:41:11.665Z,14.63
2022-12-14T06:44:14.734Z,16.73
2022-12-14T06:47:17.425Z,14.83
2022-12-14T06:50:20.145Z,14.70
2022-12-14T06:53:22.930Z,15.07
2022-12-14T06:56:27.954Z,15.15
2022-12-14T06:59:31.031Z,15.43
2022-12-14T07:02:38.213Z,14.03
2022-12-14T07:05:45.782Z,14.60
2022-12-14T07:08:57.145Z,13.52
2022-12-14T07:12:00.637Z,13.60
2022-12-14T07:15:03.724Z,16.92
2022-12-14T07:18:06.448Z,14.57
2022-12-14T07:21:12.197Z,15.63
2022-12-14T07:24:16.346Z,13.82
2022-12-14T07:27:19.325Z,12.57
2022-12-14T07:30:52.947Z,14.40
2022-12-14T07:33:59.813Z,15.00
2022-12-14T07:37:02.686Z,12.85
2022-12-14T07:40:06.093Z,14.70
2022-12-14T07:43:10.344Z,14.60
2022-12-14T07:46:18.845Z,14.00
2022-12-14T07:49:21.911Z,12.97
2022-12-14T07:52:26.103Z,15.45
2022-12-14T07:55:31.163Z,14.95
2022-12-14T07:58:35.282Z,12.50
2022-12-14T08:01:39.334Z,16.33
2022-12-14T08:04:42.946Z,14.23
2022-12-14T08:07:53.131Z,12.20
2022-12-14T08:10:55.855Z,15.32
2022-12-14T08:14:01.469Z,15.35
2022-12-14T08:17:11.453Z,12.93
2022-12-14T08:20:17.902Z,12.93
2022-12-14T08:23:21.540Z,16.77
2022-12-14T08:26:28.775Z,13.27
2022-12-14T08:29:37.710Z,13.55
2022-12-14T08:32:40.355Z,12.75
2022-12-14T08:35:43.267Z,15.07
2022-12-14T08:38:46.529Z,14.50
2022-12-14T08:41:53.179Z,14.10
2022-12-14T08:44:55.776Z,14.57
2022-12-14T08:47:59.747Z,16.92
2022-12-14T08:51:12.373Z,14.07
2022-12-14T08:54:15.077Z,17.88
2022-12-14T08:57:17.704Z,16.92
2022-12-14T09:00:21.110Z,15.13
2022-12-14T09:03:25.605Z,14.93
2022-12-14T09:06:28.291Z,13.40
2022-12-14T09:09:34.544Z,13.98
2022-12-14T09:12:39.560Z,16.15
2022-12-14T09:15:47.285Z,14.77
2022-12-14T09:18:52.104Z,13.30
2022-12-14T09:21:57.480Z,11.93
2022-12-14T09:25:02.171Z,13.60
2022-12-14T09:28:04.941Z,14.60
2022-12-14T09:31:11.529Z,13.02
2022-12-14T09:34:15.549Z,14.35
2022-12-14T09:37:18.139Z,13.00
2022-12-14T09:40:25.699Z,11.95
2022-12-14T09:44:05.598Z,12.85
2022-12-14T09:47:24.928Z,12.43
2022-12-14T09:50:29.415Z,14.10
2022-12-14T09:53:33.240Z,12.40
2022-12-14T09:56:38.556Z,11.70
2022-12-14T09:59:41.369Z,13.90
2022-12-14T10:02:55.858Z,16.33
2022-12-14T10:06:38.998Z,13.85
2022-12-14T10:10:19.136Z,13.47
2022-12-14T10:13:27.691Z,16.17
2022-12-14T10:16:59.696Z,11.73
2022-12-14T10:20:24.627Z,10.85
2022-12-14T10:23:33.018Z,13.48
2022-12-14T10:26:46.571Z,13.80
2022-12-14T10:30:08.938Z,14.38
2022-12-14T10:33:29.623Z,12.73
2022-12-14T10:36:44.542Z,14.40
2022-12-14T10:40:24.683Z,12.82
2022-12-14T10:43:39.715Z,14.67
2022-12-14T10:46:55.742Z,14.38
2022-12-14T10:50:34.003Z,13.48
2022-12-14T10:53:58.740Z,14.75
2022-12-14T10:57:01.662Z,13.80
2022-12-14T11:00:18.466Z,15.23
2022-12-14T11:03:26.400Z,18.02
2022-12-14T11:06:29.252Z,13.90
2022-12-14T11:09:32.388Z,12.98
2022-12-14T11:12:35.670Z,13.65
2022-12-14T11:15:48.405Z,14.57
2022-12-14T11:19:00.846Z,16.17
2022-12-14T11:22:20.314Z,15.05
2022-12-14T11:25:45.862Z,14.05
2022-12-14T11:28:56.670Z,16.38
2022-12-14T11:32:01.044Z,14.77
2022-12-14T11:35:06.469Z,15.25
2022-12-14T11:38:15.639Z,13.77
2022-12-14T11:41:22.281Z,23.50
2022-12-14T11:44:33.887Z,13.82
2022-12-14T11:47:37.017Z,15.53
2022-12-14T11:50:44.976Z,18.80
2022-12-14T11:54:04.729Z,14.43
2022-12-14T11:57:25.610Z,14.30
2022-12-14T12:00:49.048Z,17.17
2022-12-14T12:03:57.169Z,14.90
2022-12-14T12:07:14.956Z,22.00
2022-12-14T12:10:37.106Z,14.73
2022-12-14T12:13:42.534Z,18.38
2022-12-14T12:16:46.222Z,14.32
2022-12-14T12:19:52.730Z,15.90
2022-12-14T12:23:12.999Z,14.07
2022-12-14T12:26:20.932Z,15.23
2022-12-14T12:29:35.304Z,16.30
2022-12-14T12:32:49.916Z,16.35
2022-12-14T12:35:56.238Z,14.17
2022-12-14T12:39:16.263Z,16.98
2022-12-14T12:42:44.003Z,15.85
2022-12-14T12:45:57.315Z,16.45
2022-12-14T12:49:07.541Z,17.58
2022-12-14T12:52:34.010Z,14.87
2022-12-14T12:55:43.226Z,16.05
2022-12-14T12:58:52.827Z,19.23
2022-12-14T13:02:06.877Z,17.73
2022-12-14T13:05:45.060Z,13.57
2022-12-14T13:08:41.447Z,17.83
2022-12-14T13:11:46.962Z,16.13
2022-12-14T13:14:51.442Z,18.92
2022-12-14T13:18:12.245Z,16.92
2022-12-14T13:21:30.355Z,16.85
2022-12-14T13:24:33.582Z,15.60
2022-12-14T13:28:18.108Z,26.20
2022-12-14T13:31:39.972Z,19.08
2022-12-14T13:35:17.971Z,18.15
2022-12-14T13:38:51.673Z,16.63
2022-12-14T13:42:18.135Z,12.87
2022-12-14T13:45:23.450Z,16.50
2022-12-14T13:48:37.536Z,16.38
2022-12-14T13:51:46.397Z,19.00
2022-12-14T13:54:53.974Z,18.15
2022-12-14T13:58:22.193Z,16.23
2022-12-14T14:01:47.062Z,19.55
2022-12-14T14:04:49.787Z,19.38
2022-12-14T14:08:31.099Z,17.15
2022-12-14T14:11:37.251Z,16.00
2022-12-14T14:15:13.798Z,15.90
2022-12-14T14:18:22.310Z,21.27
2022-12-14T14:22:05.986Z,26.02
2022-12-14T14:25:41.213Z,35.63
2022-12-14T14:28:44.075Z,47.08
2022-12-14T14:31:54.400Z,51.97
2022-12-14T14:34:57.428Z,63.10
2022-12-14T14:38:04.949Z,62.47
2022-12-14T14:41:17.121Z,67.00
2022-12-14T14:44:35.220Z,55.85
2022-12-14T14:47:39.865Z,50.10
2022-12-14T14:50:43.278Z,51.95
2022-12-14T14:53:50.418Z,46.85
2022-12-14T14:56:53.705Z,47.42
2022-12-14T15:00:02.521Z,48.40
2022-12-14T15:03:07.519Z,40.00
2022-12-14T15:06:17.724Z,43.38
2022-12-14T15:09:32.131Z,44.88
2022-12-14T15:12:45.623Z,43.28
2022-12-14T15:15:56.485Z,40.58
2022-12-14T15:19:22.972Z,42.00
2022-12-14T15:22:41.568Z,38.47
2022-12-14T15:25:44.113Z,41.47
2022-12-14T15:28:52.920Z,38.83
2022-12-14T15:31:59.873Z,37.30
2022-12-14T15:35:07.225Z,33.53
2022-12-14T15:38:20.270Z,34.42
2022-12-14T15:41:26.452Z,30.58
2022-12-14T15:44:28.981Z,32.78
2022-12-14T15:47:31.824Z,33.83
2022-12-14T15:50:35.480Z,32.83
2022-12-14T15:53:41.730Z,37.10
2022-12-14T15:56:46.998Z,32.78
2022-12-14T15:59:51.394Z,33.97
2022-12-14T16:02:54.351Z,31.27
2022-12-14T16:05:57.562Z,35.40
2022-12-14T16:09:08.066Z,30.90
2022-12-14T16:12:32.637Z,31.73
2022-12-14T16:15:36.072Z,29.52
2022-12-14T16:18:50.579Z,29.45
2022-12-14T16:22:21.992Z,31.43
2022-12-14T16:25:25.001Z,29.60
2022-12-14T16:28:31.965Z,33.58
2022-12-14T16:31:36.320Z,38.67
2022-12-14T16:34:59.029Z,33.35
2022-12-14T16:38:07.697Z,29.87
2022-12-14T16:41:11.008Z,32.45
2022-12-14T16:44:21.227Z,31.65
2022-12-14T16:47:27.195Z,25.55
2022-12-14T16:50:55.370Z,26.95
2022-12-14T16:54:01.094Z,33.70
2022-12-14T16:57:23.287Z,29.65
2022-12-14T17:00:32.712Z,32.78
2022-12-14T17:03:37.784Z,29.63
2022-12-14T17:06:56.573Z,26.92
2022-12-14T17:10:00.613Z,29.53
2022-12-14T17:13:04.986Z,26.50
2022-12-14T17:16:13.421Z,22.23
2022-12-14T17:19:21.353Z,26.90
2022-12-14T17:22:29.585Z,25.45
2022-12-14T17:25:33.275Z,24.13
2022-12-14T17:28:37.578Z,22.40
2022-12-14T17:31:44.623Z,23.88
2022-12-14T17:34:53.457Z,25.38
2022-12-14T17:37:58.171Z,22.13
2022-12-14T17:41:01.461Z,25.60
2022-12-14T17:44:05.666Z,25.67
2022-12-14T17:47:13.651Z,22.80
2022-12-14T17:50:19.000Z,21.27
2022-12-14T17:53:30.928Z,22.90
2022-12-14T17:56:34.514Z,20.63
2022-12-14T17:59:39.852Z,17.75
2022-12-14T18:02:47.059Z,22.33
2022-12-14T18:05:51.027Z,21.58
2022-12-14T18:08:54.384Z,21.35
2022-12-14T18:12:22.148Z,24.03
2022-12-14T18:15:27.698Z,21.15
2022-12-14T18:18:31.864Z,19.80
2022-12-14T18:21:35.711Z,21.35
2022-12-14T18:24:40.771Z,18.55
2022-12-14T18:27:43.756Z,21.10
2022-12-14T18:31:10.464Z,19.52
2022-12-14T18:34:14.698Z,19.25
2022-12-14T18:37:23.786Z,25.15
2022-12-14T18:40:31.054Z,19.92
2022-12-14T18:43:38.873Z,20.07
2022-12-14T18:46:49.195Z,17.65
2022-12-14T18:49:53.524Z,17.08
2022-12-14T18:52:57.931Z,19.52
2022-12-14T18:56:09.578Z,17.70
2022-12-14T18:59:13.333Z,19.40
2022-12-14T19:02:20.900Z,16.92
2022-12-14T19:05:26.889Z,18.13
2022-12-14T19:08:31.502Z,17.10
2022-12-14T19:11:40.092Z,17.38
2022-12-14T19:14:52.893Z,17.50
2022-12-14T19:17:59.387Z,16.20
2022-12-14T19:21:05.597Z,16.63
2022-12-14T19:24:14.469Z,18.80
2022-12-14T19:27:35.653Z,16.10
2022-12-14T19:30:45.407Z,17.27
2022-12-14T19:33:54.803Z,16.92
2022-12-14T19:36:59.460Z,18.42
2022-12-14T19:40:11.717Z,18.27
2022-12-14T19:43:23.033Z,15.07
2022-12-14T19:46:28.281Z,18.43
2022-12-14T19:49:32.507Z,16.80
2022-12-14T19:52:36.733Z,15.60
2022-12-14T19:55:40.463Z,16.45
2022-12-14T19:58:44.436Z,16.33
2022-12-14T20:01:51.026Z,16.93
2022-12-14T20:04:55.252Z,16.67
2022-12-14T20:08:01.808Z,16.35
2022-12-14T20:11:11.031Z,13.63
2022-12-14T20:14:16.508Z,16.30
2022-12-14T20:17:22.193Z,15.60
2022-12-14T20:20:28.330Z,15.20
2022-12-14T20:23:35.930Z,18.05
2022-12-14T20:26:40.596Z,14.02
2022-12-14T20:29:50.137Z,15.77
2022-12-14T20:32:54.002Z,14.97
2022-12-14T20:35:59.311Z,15.20
2022-12-14T20:39:06.899Z,15.32
2022-12-14T20:42:10.400Z,13.40
2022-12-14T20:45:13.779Z,15.07
2022-12-14T20:48:19.275Z,15.93
2022-12-14T20:51:25.104Z,14.40
2022-12-14T20:54:30.528Z,15.23
2022-12-14T20:57:34.287Z,14.27
2022-12-14T21:00:38.089Z,14.40
2022-12-14T21:03:42.495Z,14.00
2022-12-14T21:06:47.590Z,14.90
2022-12-14T21:09:52.039Z,13.77
2022-12-14T21:12:55.858Z,13.60
2022-12-14T21:15:59.277Z,14.88
2022-12-14T21:19:02.185Z,14.43
2022-12-14T21:22:08.874Z,14.05
2022-12-14T21:25:11.916Z,16.27
2022-12-14T21:28:15.732Z,14.75
2022-12-14T21:31:18.536Z,15.02
2022-12-14T21:34:23.300Z,14.97
2022-12-14T21:37:26.103Z,13.13
2022-12-14T21:40:47.786Z,15.63
2022-12-14T21:43:53.230Z,15.02
2022-12-14T21:46:55.802Z,14.40
2022-12-14T21:49:58.424Z,11.87
2022-12-14T21:53:01.305Z,14.88
2022-12-14T21:56:22.797Z,14.27
2022-12-14T21:59:29.297Z,14.75
2022-12-14T22:02:32.081Z,14.55
2022-12-14T22:05:38.759Z,16.50
2022-12-14T22:08:41.395Z,13.98
2022-12-14T22:11:44.408Z,13.75
2022-12-14T22:14:48.775Z,15.55
2022-12-14T22:17:51.869Z,12.85
2022-12-14T22:21:03.016Z,14.30
2022-12-14T22:24:06.610Z,13.23
2022-12-14T22:27:11.291Z,13.00
2022-12-14T22:30:14.025Z,11.88
2022-12-14T22:33:16.617Z,14.10
2022-12-14T22:36:19.236Z,12.73
2022-12-14T22:39:21.799Z,13.02
2022-12-14T22:42:24.602Z,13.45
2022-12-14T22:45:27.132Z,13.65
2022-12-14T22:48:33.543Z,12.57
2022-12-14T22:51:36.285Z,14.10
2022-12-14T22:54:39.774Z,13.60
2022-12-14T22:57:45.761Z,13.48
2022-12-14T23:00:49.806Z,12.95
2022-12-14T23:03:53.405Z,12.43
2022-12-14T23:06:56.167Z,11.40
2022-12-14T23:10:17.305Z,12.30
2022-12-14T23:13:38.355Z,12.20
2022-12-14T23:16:59.485Z,13.88
2022-12-14T23:20:20.849Z,12.63
2022-12-14T23:23:41.964Z,12.37
2022-12-14T23:27:09.132Z,11.95
2022-12-14T23:30:31.290Z,11.55
2022-12-14T23:33:52.813Z,13.02
2022-12-14T23:37:20.247Z,11.75
2022-12-14T23:40:42.129Z,12.80
2022-12-14T23:44:03.242Z,11.40
2022-12-14T23:47:24.558Z,11.75
2022-12-14T23:50:45.975Z,12.95
2022-12-14T23:54:07.279Z,12.85
2022-12-14T23:57:28.496Z,11.40
